Time;durP1;ratioP1;P1;durP2;ratioP2;P2;SDS_P1;SDS_P2;PMS_P1;PMS_P2;Temp;Humidity;BMP_temperature;BMP_pressure;BME280_temperature;BME280_humidity;BME280_pressure;Samples;Min_cycle;Max_cycle;Signal;HPM_P1;HPM_P2
2023/06/24 00:01:26;;;;;;;2.30;2.20;;;17.20;99.90;;;;;;5001591;28;20053;-86
2023/06/24 00:03:53;;;;;;;2.20;2.10;;;17.10;99.90;;;;;;4999837;28;20041;-85
2023/06/24 00:06:25;;;;;;;2.25;2.15;;;17.00;99.90;;;;;;4992619;28;20045;-85
2023/06/24 00:08:52;;;;;;;2.40;2.30;;;16.90;99.90;;;;;;4989606;28;20046;-85
2023/06/24 00:11:18;;;;;;;2.22;2.13;;;16.90;99.90;;;;;;4994948;28;20052;-85
2023/06/24 00:13:44;;;;;;;2.40;2.30;;;16.90;99.90;;;;;;4997407;28;20487;-85
2023/06/24 00:16:10;;;;;;;2.10;2.00;;;16.90;99.90;;;;;;4994523;28;20042;-85
2023/06/24 00:18:40;;;;;;;2.08;1.98;;;16.90;99.90;;;;;;4996677;28;20422;-85
2023/06/24 00:21:06;;;;;;;2.15;2.05;;;17.00;99.90;;;;;;4998930;28;20734;-85
2023/06/24 00:23:34;;;;;;;2.10;2.00;;;16.90;99.90;;;;;;5019042;28;20088;-85
2023/06/24 00:26:00;;;;;;;2.10;2.00;;;16.80;99.90;;;;;;4996630;28;20108;-85
2023/06/24 00:28:26;;;;;;;2.10;2.00;;;16.80;99.90;;;;;;4989913;28;20544;-85
2023/06/24 00:30:53;;;;;;;2.17;2.08;;;16.70;99.90;;;;;;4991840;28;20057;-85
2023/06/24 00:33:21;;;;;;;2.05;1.95;;;16.80;99.90;;;;;;4993959;28;20100;-85
2023/06/24 00:35:47;;;;;;;2.10;2.00;;;16.90;99.90;;;;;;5012089;28;20046;-85
2023/06/24 00:38:13;;;;;;;2.20;2.10;;;16.80;99.90;;;;;;4995912;28;20060;-84
2023/06/24 00:40:39;;;;;;;2.10;2.00;;;16.80;99.90;;;;;;4995626;28;20049;-85
2023/06/24 00:43:05;;;;;;;2.28;2.17;;;16.90;99.90;;;;;;5002258;28;20046;-85
2023/06/24 00:45:31;;;;;;;2.08;1.98;;;16.70;99.90;;;;;;4994759;28;20045;-84
2023/06/24 00:47:58;;;;;;;2.17;2.08;;;16.60;99.90;;;;;;5007455;28;20081;-85
2023/06/24 00:50:24;;;;;;;2.00;1.90;;;16.50;99.90;;;;;;4999779;28;20069;-85
2023/06/24 00:52:50;;;;;;;1.70;1.60;;;16.50;99.90;;;;;;4993572;28;20529;-85
2023/06/24 00:55:17;;;;;;;1.95;1.85;;;16.40;99.90;;;;;;4999173;28;20056;-84
2023/06/24 00:57:51;;;;;;;1.90;1.80;;;16.40;99.90;;;;;;5003722;28;20522;-85
2023/06/24 01:00:21;;;;;;;;;;;16.20;99.90;;;;;;5001273;28;20103;-85
2023/06/24 01:02:48;;;;;;;1.50;1.40;;;16.20;99.90;;;;;;5003886;28;19929;-85
2023/06/24 01:05:14;;;;;;;1.77;1.67;;;16.20;99.90;;;;;;5005576;28;20636;-86
2023/06/24 01:07:41;;;;;;;1.70;1.60;;;16.20;99.90;;;;;;5007037;28;20045;-85
2023/06/24 01:10:08;;;;;;;1.58;1.48;;;16.20;99.90;;;;;;5005376;28;20049;-85
2023/06/24 01:12:38;;;;;;;1.40;1.40;;;16.10;99.90;;;;;;5001250;28;20081;-85
2023/06/24 01:15:05;;;;;;;1.60;1.50;;;15.90;99.90;;;;;;5007350;28;20573;-85
2023/06/24 01:17:58;;;;;;;1.60;1.50;;;16.00;99.90;;;;;;5005205;28;20046;-85
2023/06/24 01:20:56;;;;;;;1.60;1.50;;;16.10;99.90;;;;;;4991641;28;20136;-84
2023/06/24 01:23:32;;;;;;;1.30;1.30;;;16.10;99.90;;;;;;4997840;28;20152;-85
2023/06/24 01:26:41;;;;;;;1.55;1.45;;;16.10;99.90;;;;;;5001937;28;20095;-85
2023/06/24 01:29:21;;;;;;;1.42;1.38;;;16.10;99.90;;;;;;4989403;28;20534;-85
2023/06/24 01:32:01;;;;;;;1.60;1.50;;;16.00;99.90;;;;;;5001281;28;20057;-85
2023/06/24 01:34:37;;;;;;;1.58;1.48;;;16.00;99.90;;;;;;4982650;28;20491;-85
2023/06/24 01:37:17;;;;;;;1.65;1.55;;;15.90;99.90;;;;;;4983156;28;20384;-85
2023/06/24 01:40:00;;;;;;;1.70;1.60;;;15.90;99.90;;;;;;5005035;28;20527;-85
2023/06/24 01:42:28;;;;;;;1.65;1.55;;;15.80;99.90;;;;;;5003364;28;20060;-85
2023/06/24 01:44:55;;;;;;;1.65;1.55;;;15.80;99.90;;;;;;5004310;28;20045;-86
2023/06/24 01:47:25;;;;;;;1.50;1.40;;;15.90;99.90;;;;;;4998822;28;20049;-85
2023/06/24 01:49:54;;;;;;;1.50;1.40;;;15.80;99.90;;;;;;5020802;28;20103;-85
2023/06/24 01:52:23;;;;;;;1.45;1.40;;;15.90;99.90;;;;;;4997319;28;20050;-85
2023/06/24 01:54:50;;;;;;;1.42;1.38;;;15.70;99.90;;;;;;4991340;28;20517;-85
2023/06/24 01:57:17;;;;;;;1.48;1.40;;;15.70;99.90;;;;;;5004159;28;20503;-85
2023/06/24 01:59:45;;;;;;;1.70;1.60;;;15.70;99.90;;;;;;4999798;28;20124;-85
2023/06/24 02:02:13;;;;;;;1.70;1.60;;;15.70;99.90;;;;;;4997769;28;20073;-85
2023/06/24 02:04:39;;;;;;;1.67;1.58;;;15.60;99.90;;;;;;5006125;28;20562;-85
2023/06/24 02:07:08;;;;;;;1.70;1.60;;;15.60;99.90;;;;;;5004142;28;20044;-84
2023/06/24 02:09:35;;;;;;;1.70;1.60;;;15.60;99.90;;;;;;5003855;28;20136;-85
2023/06/24 02:12:03;;;;;;;1.65;1.55;;;15.60;99.90;;;;;;4984834;28;20077;-84
2023/06/24 02:14:30;;;;;;;1.80;1.70;;;15.60;99.90;;;;;;4998743;28;20491;-85
2023/06/24 02:16:58;;;;;;;1.70;1.60;;;15.60;99.90;;;;;;4995036;28;20068;-85
2023/06/24 02:19:31;;;;;;;1.70;1.60;;;15.50;99.90;;;;;;5000541;28;20037;-85
2023/06/24 02:21:59;;;;;;;1.70;1.60;;;15.50;99.90;;;;;;4998967;28;20054;-84
2023/06/24 02:24:26;;;;;;;1.77;1.67;;;15.50;99.90;;;;;;5001447;28;20057;-85
2023/06/24 02:26:53;;;;;;;1.80;1.70;;;15.40;99.90;;;;;;5011265;28;20050;-85
2023/06/24 02:29:21;;;;;;;1.70;1.60;;;15.50;99.90;;;;;;4984382;28;20037;-85
2023/06/24 02:31:47;;;;;;;1.60;1.50;;;15.40;99.90;;;;;;4997952;28;20543;-85
2023/06/24 02:34:12;;;;;;;1.60;1.50;;;15.20;99.90;;;;;;4998016;28;20056;-85
2023/06/24 02:36:39;;;;;;;1.50;1.40;;;15.30;99.90;;;;;;5000968;28;20142;-84
2023/06/24 02:39:04;;;;;;;1.50;1.40;;;15.40;99.90;;;;;;5000267;28;20060;-84
2023/06/24 02:41:30;;;;;;;1.50;1.40;;;15.30;99.90;;;;;;5001567;28;20046;-85
2023/06/24 02:43:56;;;;;;;1.67;1.58;;;15.20;99.90;;;;;;5001520;28;20128;-84
2023/06/24 02:46:22;;;;;;;1.45;1.40;;;15.20;99.90;;;;;;5000672;28;20078;-84
2023/06/24 02:48:49;;;;;;;1.40;1.40;;;15.20;99.90;;;;;;4991913;28;20049;-84
2023/06/24 02:51:15;;;;;;;1.67;1.58;;;15.20;99.90;;;;;;4990760;28;20052;-84
2023/06/24 02:53:42;;;;;;;1.50;1.40;;;15.20;99.90;;;;;;5017484;28;20053;-84
2023/06/24 02:56:09;;;;;;;1.50;1.40;;;15.30;99.90;;;;;;4993130;28;20046;-84
2023/06/24 02:58:37;;;;;;;1.60;1.50;;;15.30;99.90;;;;;;4998089;28;20057;-84
2023/06/24 03:01:03;;;;;;;1.60;1.50;;;15.20;99.90;;;;;;5001316;28;20588;-84
2023/06/24 03:03:30;;;;;;;1.50;1.40;;;15.20;99.90;;;;;;4992056;28;20053;-84
2023/06/24 03:05:59;;;;;;;1.50;1.40;;;15.20;99.90;;;;;;5003489;28;20037;-84
2023/06/24 03:08:26;;;;;;;1.50;1.40;;;15.10;99.90;;;;;;5012516;28;20080;-84
2023/06/24 03:10:54;;;;;;;1.58;1.48;;;15.10;99.90;;;;;;5005625;28;20053;-84
2023/06/24 03:13:20;;;;;;;1.58;1.48;;;15.10;99.90;;;;;;5012141;28;20513;-84
2023/06/24 03:15:46;;;;;;;1.50;1.40;;;15.00;99.90;;;;;;4986294;28;20038;-84
2023/06/24 03:18:11;;;;;;;1.52;1.42;;;15.00;99.90;;;;;;5001686;28;20052;-85
2023/06/24 03:20:38;;;;;;;1.60;1.50;;;15.10;99.90;;;;;;4987936;28;20132;-84
2023/06/24 03:23:07;;;;;;;1.60;1.50;;;15.10;99.90;;;;;;5000266;28;20053;-84
2023/06/24 03:25:34;;;;;;;1.50;1.40;;;15.00;99.90;;;;;;5004764;28;20074;-85
2023/06/24 03:28:00;;;;;;;1.50;1.40;;;15.00;99.90;;;;;;5004229;28;20049;-84
2023/06/24 03:30:27;;;;;;;1.70;1.60;;;15.10;99.90;;;;;;4992550;28;20054;-85
2023/06/24 03:32:52;;;;;;;1.60;1.50;;;15.20;99.90;;;;;;5003033;28;20140;-85
2023/06/24 03:35:18;;;;;;;1.60;1.50;;;15.20;99.90;;;;;;5004020;28;20136;-84
2023/06/24 03:37:44;;;;;;;1.60;1.50;;;15.20;99.90;;;;;;5006114;28;20071;-84
2023/06/24 03:40:10;;;;;;;1.27;1.27;;;15.30;99.90;;;;;;4993505;28;20491;-84
2023/06/24 03:42:36;;;;;;;1.30;1.30;;;15.30;99.90;;;;;;4999076;28;20064;-84
2023/06/24 03:45:03;;;;;;;1.30;1.30;;;15.20;99.90;;;;;;5002552;28;20507;-84
2023/06/24 03:47:29;;;;;;;1.30;1.30;;;15.10;99.90;;;;;;5006098;28;20121;-84
2023/06/24 03:49:54;;;;;;;1.50;1.40;;;15.20;99.90;;;;;;5002577;28;20128;-84
2023/06/24 03:52:20;;;;;;;1.48;1.40;;;15.10;99.90;;;;;;5002497;28;20072;-84
2023/06/24 03:54:46;;;;;;;1.60;1.50;;;15.20;99.90;;;;;;5001871;28;20041;-84
2023/06/24 03:57:12;;;;;;;1.48;1.40;;;15.00;99.90;;;;;;5005071;28;20049;-85
2023/06/24 03:59:38;;;;;;;1.80;1.70;;;14.90;99.90;;;;;;5019732;28;20046;-84
2023/06/24 04:02:08;;;;;;;1.45;1.40;;;14.80;99.90;;;;;;5006370;28;20072;-85
2023/06/24 04:04:34;;;;;;;1.50;1.40;;;14.90;99.90;;;;;;4978081;28;20045;-85
2023/06/24 04:07:00;;;;;;;1.30;1.30;;;14.90;99.90;;;;;;5004343;28;20188;-84
2023/06/24 04:09:26;;;;;;;1.25;1.25;;;14.90;99.90;;;;;;5001683;28;20519;-84
2023/06/24 04:11:51;;;;;;;1.30;1.30;;;15.00;99.90;;;;;;5004639;28;20052;-84
2023/06/24 04:14:17;;;;;;;1.30;1.30;;;15.00;99.90;;;;;;5003949;28;20103;-84
2023/06/24 04:16:43;;;;;;;1.30;1.30;;;15.00;99.90;;;;;;5004616;28;20057;-84
2023/06/24 04:19:09;;;;;;;1.30;1.30;;;15.00;99.90;;;;;;5005441;28;20462;-85
2023/06/24 04:21:34;;;;;;;1.50;1.40;;;15.20;99.90;;;;;;5003255;28;20046;-85
2023/06/24 04:24:00;;;;;;;1.27;1.27;;;15.20;99.90;;;;;;5004462;28;20060;-84
2023/06/24 04:26:26;;;;;;;1.30;1.30;;;15.30;99.90;;;;;;5004650;28;20044;-85
2023/06/24 04:28:51;;;;;;;1.30;1.30;;;15.40;99.90;;;;;;5004546;28;20042;-84
2023/06/24 04:31:17;;;;;;;1.30;1.30;;;15.60;99.90;;;;;;5005464;28;20049;-85
2023/06/24 04:33:43;;;;;;;1.40;1.30;;;15.60;99.90;;;;;;5005005;28;20414;-84
2023/06/24 04:36:09;;;;;;;1.30;1.30;;;15.80;99.90;;;;;;5008525;28;20688;-84
2023/06/24 04:38:34;;;;;;;1.30;1.30;;;15.80;99.90;;;;;;5008942;28;20045;-85
2023/06/24 04:41:00;;;;;;;1.48;1.40;;;16.00;99.90;;;;;;5009147;28;20049;-85
2023/06/24 04:43:27;;;;;;;1.30;1.30;;;16.20;99.90;;;;;;4991981;28;20048;-84
2023/06/24 04:45:55;;;;;;;1.50;1.40;;;17.20;99.90;;;;;;5008889;28;20181;-84
2023/06/24 04:48:22;;;;;;;1.30;1.30;;;17.30;99.90;;;;;;5008044;28;20111;-84
2023/06/24 04:50:48;;;;;;;1.30;1.30;;;18.40;99.90;;;;;;5008734;28;20100;-84
2023/06/24 04:53:14;;;;;;;1.50;1.40;;;19.30;99.90;;;;;;5008838;28;20045;-85
2023/06/24 04:55:39;;;;;;;1.55;1.45;;;20.20;99.90;;;;;;5006449;28;20057;-84
2023/06/24 04:58:05;;;;;;;1.90;1.80;;;20.40;99.90;;;;;;5007804;28;20092;-85
2023/06/24 05:00:31;;;;;;;2.00;1.90;;;20.40;99.90;;;;;;5006017;28;20490;-86
2023/06/24 05:02:56;;;;;;;2.30;2.20;;;20.90;99.90;;;;;;5006952;28;20045;-85
2023/06/24 05:05:22;;;;;;;2.20;2.10;;;21.10;99.90;;;;;;5006726;28;20048;-85
2023/06/24 05:07:48;;;;;;;2.10;2.00;;;21.60;99.90;;;;;;5006317;28;20053;-85
2023/06/24 05:10:14;;;;;;;1.92;1.83;;;22.00;99.90;;;;;;5004870;28;20048;-86
2023/06/24 05:12:40;;;;;;;1.60;1.50;;;22.20;99.90;;;;;;4990152;28;20132;-85
2023/06/24 05:15:06;;;;;;;1.50;1.40;;;22.10;99.90;;;;;;5006507;28;20046;-84
2023/06/24 05:17:31;;;;;;;1.58;1.48;;;22.90;99.90;;;;;;5004024;28;20077;-85
2023/06/24 05:19:57;;;;;;;1.60;1.50;;;24.10;99.90;;;;;;4997372;28;20418;-85
2023/06/24 05:22:23;;;;;;;1.50;1.40;;;24.30;99.90;;;;;;4992635;28;20787;-84
2023/06/24 05:24:49;;;;;;;1.40;1.30;;;24.40;99.90;;;;;;5008430;28;20103;-85
2023/06/24 05:27:14;;;;;;;1.60;1.50;;;23.80;99.90;;;;;;5006665;28;20498;-84
2023/06/24 05:29:40;;;;;;;1.30;1.30;;;22.60;99.90;;;;;;5006407;28;20053;-85
2023/06/24 05:32:06;;;;;;;1.50;1.40;;;21.60;99.90;;;;;;4988289;28;20591;-85
2023/06/24 05:34:33;;;;;;;1.40;1.38;;;21.10;99.90;;;;;;5001304;28;20049;-84
2023/06/24 05:36:59;;;;;;;1.50;1.40;;;21.70;99.90;;;;;;5006902;28;20137;-85
2023/06/24 05:39:25;;;;;;;1.60;1.50;;;21.80;99.90;;;;;;5008116;28;20128;-86
2023/06/24 05:41:50;;;;;;;1.63;1.52;;;21.50;99.90;;;;;;5006297;28;20195;-86
2023/06/24 05:44:17;;;;;;;1.60;1.50;;;21.30;99.90;;;;;;5006193;28;20128;-85
2023/06/24 05:46:44;;;;;;;1.60;1.50;;;21.70;99.90;;;;;;5003449;28;20161;-84
2023/06/24 05:49:10;;;;;;;1.70;1.60;;;21.80;99.90;;;;;;5005703;28;20140;-84
2023/06/24 05:51:35;;;;;;;1.50;1.40;;;21.70;99.90;;;;;;5003110;28;20041;-84
2023/06/24 05:54:01;;;;;;;1.42;1.40;;;21.70;99.90;;;;;;5002473;28;20137;-84
2023/06/24 05:56:27;;;;;;;1.45;1.38;;;21.50;99.90;;;;;;5002863;28;20042;-83
2023/06/24 05:58:53;;;;;;;1.52;1.42;;;21.10;99.90;;;;;;4998040;28;20046;-82
2023/06/24 06:01:18;;;;;;;1.30;1.30;;;21.20;99.90;;;;;;5005117;28;20049;-83
2023/06/24 06:03:44;;;;;;;1.30;1.30;;;21.50;99.90;;;;;;5005464;28;20045;-82
2023/06/24 06:06:10;;;;;;;1.17;1.17;;;21.80;99.90;;;;;;5000330;28;20042;-83
2023/06/24 06:08:35;;;;;;;1.15;1.15;;;22.10;99.90;;;;;;5022197;28;20137;-84
2023/06/24 06:11:02;;;;;;;1.10;1.10;;;22.20;99.90;;;;;;4983733;28;20045;-83
2023/06/24 06:13:28;;;;;;;1.33;1.33;;;22.60;99.90;;;;;;5003679;28;20124;-83
2023/06/24 06:15:55;;;;;;;1.27;1.27;;;22.50;99.90;;;;;;4982337;28;20041;-82
2023/06/24 06:18:20;;;;;;;1.30;1.30;;;22.60;99.90;;;;;;4997146;28;20491;-83
2023/06/24 06:20:46;;;;;;;1.40;1.40;;;23.00;99.90;;;;;;4996475;28;20049;-83
2023/06/24 06:23:11;;;;;;;1.45;1.40;;;23.40;99.90;;;;;;4999443;28;20423;-83
2023/06/24 06:25:38;;;;;;;1.38;1.33;;;23.30;99.90;;;;;;5016814;28;20742;-82
2023/06/24 06:28:04;;;;;;;1.58;1.48;;;23.20;99.90;;;;;;5003091;28;20053;-82
2023/06/24 06:30:30;;;;;;;1.50;1.40;;;23.40;99.90;;;;;;4989008;28;20045;-83
2023/06/24 06:32:55;;;;;;;1.60;1.50;;;23.50;99.90;;;;;;5004378;28;20057;-84
2023/06/24 06:35:21;;;;;;;1.45;1.38;;;23.70;99.90;;;;;;4994010;28;20483;-82
2023/06/24 06:37:52;;;;;;;1.55;1.45;;;24.00;99.90;;;;;;5005167;28;20049;-83
2023/06/24 06:40:18;;;;;;;1.58;1.48;;;24.00;99.90;;;;;;5005274;28;20056;-83
2023/06/24 06:42:44;;;;;;;1.27;1.27;;;24.00;99.90;;;;;;5005273;28;20072;-81
2023/06/24 06:45:10;;;;;;;0.73;0.73;;;24.10;99.90;;;;;;5000262;28;20046;-82
2023/06/24 06:47:36;;;;;;;1.40;1.35;;;24.20;99.90;;;;;;5022094;28;20037;-81
2023/06/24 06:50:01;;;;;;;1.25;1.25;;;24.40;99.90;;;;;;5007065;28;20095;-82
2023/06/24 06:52:28;;;;;;;0.35;0.35;;;24.10;99.90;;;;;;5001788;28;20041;-84
2023/06/24 06:54:54;;;;;;;0.95;0.95;;;24.20;99.90;;;;;;4993240;28;20685;-84
2023/06/24 06:57:20;;;;;;;0.63;0.63;;;24.20;99.90;;;;;;5011524;28;20889;-85
2023/06/24 06:59:45;;;;;;;0.95;0.95;;;24.30;99.90;;;;;;4996336;28;20049;-83
2023/06/24 07:02:11;;;;;;;0.30;0.30;;;24.40;99.90;;;;;;5001058;28;20050;-84
2023/06/24 07:04:36;;;;;;;0.60;0.60;;;24.60;99.90;;;;;;4999379;28;20045;-83
2023/06/24 07:07:02;;;;;;;0.95;0.95;;;24.50;99.90;;;;;;5004897;28;20051;-86
2023/06/24 07:09:28;;;;;;;0.60;0.60;;;24.30;99.90;;;;;;5001550;28;20052;-86
2023/06/24 07:11:54;;;;;;;0.57;0.57;;;24.50;99.90;;;;;;5004043;28;20441;-85
2023/06/24 07:14:19;;;;;;;0.68;0.68;;;24.70;99.90;;;;;;4988927;28;20049;-83
2023/06/24 07:16:45;;;;;;;0.30;0.30;;;24.80;99.90;;;;;;4989063;28;20077;-84
2023/06/24 07:19:11;;;;;;;0.90;0.90;;;24.80;99.90;;;;;;5003590;28;20041;-81
2023/06/24 07:21:39;;;;;;;0.43;0.43;;;25.20;99.90;;;;;;5010161;28;20486;-83
2023/06/24 07:24:05;;;;;;;0.57;0.57;;;25.50;99.90;;;;;;5001410;28;20171;-82
2023/06/24 07:26:32;;;;;;;0.43;0.43;;;25.20;99.90;;;;;;5003899;28;20100;-87
2023/06/24 07:28:58;;;;;;;0.55;0.55;;;25.10;99.90;;;;;;4989910;28;20057;-86
2023/06/24 07:31:24;;;;;;;0.43;0.43;;;25.40;99.90;;;;;;5004122;28;20485;-88
2023/06/24 07:33:49;;;;;;;0.30;0.30;;;25.40;99.90;;;;;;5004428;28;20081;-85
2023/06/24 07:36:15;;;;;;;0.40;0.40;;;25.60;99.90;;;;;;5001345;28;20132;-85
2023/06/24 07:38:41;;;;;;;0.30;0.30;;;25.50;99.90;;;;;;4987705;28;20472;-82
2023/06/24 07:41:06;;;;;;;0.40;0.40;;;25.90;99.90;;;;;;5003988;28;20128;-82
2023/06/24 07:43:32;;;;;;;0.30;0.30;;;25.90;99.90;;;;;;5005000;28;20049;-84
2023/06/24 07:45:58;;;;;;;0.40;0.40;;;25.80;99.90;;;;;;5005305;28;20050;-83
2023/06/24 07:48:23;;;;;;;0.30;0.30;;;26.20;99.90;;;;;;5005682;28;20072;-84
2023/06/24 07:50:49;;;;;;;0.40;0.40;;;26.30;99.90;;;;;;5004902;28;20060;-84
2023/06/24 07:53:15;;;;;;;0.47;0.38;;;26.30;99.90;;;;;;5003561;28;20045;-84
2023/06/24 07:55:41;;;;;;;0.30;0.30;;;26.30;99.90;;;;;;5006602;28;20060;-83
2023/06/24 07:58:06;;;;;;;0.30;0.30;;;26.60;99.90;;;;;;5002190;28;20057;-83
2023/06/24 08:00:32;;;;;;;0.43;0.40;;;26.60;99.90;;;;;;5005657;28;20535;-84
2023/06/24 08:02:58;;;;;;;0.43;0.43;;;26.70;99.90;;;;;;5001890;28;20121;-83
2023/06/24 08:05:24;;;;;;;0.30;0.30;;;26.80;99.90;;;;;;5000462;28;20041;-84
2023/06/24 08:07:51;;;;;;;0.30;0.30;;;26.70;99.90;;;;;;5016771;28;20045;-86
2023/06/24 08:10:18;;;;;;;0.30;0.30;;;26.90;99.90;;;;;;4988020;28;20073;-83
2023/06/24 08:12:43;;;;;;;0.32;0.32;;;27.10;99.90;;;;;;5009685;28;20069;-88
2023/06/24 08:15:09;;;;;;;0.30;0.30;;;27.30;99.90;;;;;;5006030;28;20077;-83
2023/06/24 08:17:35;;;;;;;0.30;0.30;;;27.10;99.90;;;;;;5008962;28;20045;-84
2023/06/24 08:20:04;;;;;;;0.30;0.30;;;27.20;99.90;;;;;;5007673;28;20041;-86
2023/06/24 08:22:30;;;;;;;0.30;0.30;;;27.40;99.90;;;;;;5006102;28;20041;-84
2023/06/24 08:24:56;;;;;;;0.50;0.50;;;27.30;99.90;;;;;;4995612;28;20052;-84
2023/06/24 08:27:22;;;;;;;0.30;0.30;;;27.30;99.90;;;;;;5001136;28;20121;-84
2023/06/24 08:29:48;;;;;;;0.32;0.32;;;27.70;99.90;;;;;;5000114;28;20077;-83
2023/06/24 08:32:13;;;;;;;0.40;0.40;;;27.80;99.90;;;;;;5000708;28;20634;-86
2023/06/24 08:34:39;;;;;;;0.30;0.30;;;27.80;99.90;;;;;;5003627;28;20583;-88
2023/06/24 08:37:04;;;;;;;0.38;0.38;;;28.10;99.90;;;;;;4991886;28;20045;-83
2023/06/24 08:39:30;;;;;;;0.30;0.30;;;28.00;99.90;;;;;;4995601;28;20069;-85
2023/06/24 08:41:56;;;;;;;0.30;0.30;;;28.10;99.90;;;;;;4992333;28;20402;-85
2023/06/24 08:44:22;;;;;;;0.30;0.30;;;28.20;99.90;;;;;;5006190;28;20175;-85
2023/06/24 08:46:48;;;;;;;0.30;0.30;;;28.50;99.90;;;;;;5002325;28;20729;-87
2023/06/24 08:49:23;;;;;;;0.30;0.30;;;28.20;99.90;;;;;;4995852;28;20056;-83
2023/06/24 08:52:03;;;;;;;0.52;0.52;;;28.10;99.90;;;;;;5004499;28;20532;-85
2023/06/24 08:54:34;;;;;;;0.40;0.40;;;28.30;99.90;;;;;;5007098;28;20415;-85
2023/06/24 08:57:01;;;;;;;0.30;0.30;;;28.50;99.90;;;;;;5008690;28;20042;-84
2023/06/24 08:59:27;;;;;;;0.30;0.30;;;28.80;99.90;;;;;;5006563;28;20057;-83
2023/06/24 09:01:53;;;;;;;0.20;0.20;;;28.80;99.90;;;;;;5003080;28;20055;-84
2023/06/24 09:04:18;;;;;;;0.40;0.40;;;28.90;99.90;;;;;;5000354;28;20050;-84
2023/06/24 09:06:44;;;;;;;0.30;0.30;;;28.90;99.90;;;;;;4990892;28;20072;-85
2023/06/24 09:09:20;;;;;;;0.30;0.30;;;29.00;99.90;;;;;;4991117;28;20608;-84
2023/06/24 09:11:53;;;;;;;0.30;0.30;;;28.80;99.90;;;;;;4998950;28;20046;-85
2023/06/24 09:14:19;;;;;;;0.40;0.40;;;27.90;99.90;;;;;;5001007;28;20057;-84
2023/06/24 09:17:00;;;;;;;0.30;0.30;;;28.40;99.90;;;;;;5001315;28;20045;-86
2023/06/24 09:19:30;;;;;;;0.28;0.28;;;28.60;99.90;;;;;;5007375;28;20053;-88
2023/06/24 09:22:03;;;;;;;0.30;0.30;;;28.50;99.90;;;;;;4993949;28;20061;-84
2023/06/24 09:24:36;;;;;;;0.20;0.20;;;28.90;99.90;;;;;;5001172;28;20053;-85
2023/06/24 09:27:03;;;;;;;0.40;0.40;;;28.80;99.90;;;;;;5006639;28;20441;-85
2023/06/24 09:29:32;;;;;;;0.52;0.35;;;29.10;99.90;;;;;;5003827;28;20111;-85
2023/06/24 09:32:01;;;;;;;0.50;0.50;;;29.00;99.90;;;;;;5001261;28;20104;-85
2023/06/24 09:34:28;;;;;;;0.20;0.20;;;29.10;99.90;;;;;;5005791;28;20052;-88
2023/06/24 09:36:56;;;;;;;0.22;0.22;;;29.30;99.90;;;;;;4988577;28;20088;-86
2023/06/24 09:39:28;;;;;;;0.35;0.35;;;29.40;99.90;;;;;;5007699;28;20156;-89
2023/06/24 09:41:54;;;;;;;0.30;0.30;;;29.70;99.90;;;;;;5007016;28;20057;-85
2023/06/24 09:44:24;;;;;;;0.35;0.35;;;29.20;99.90;;;;;;5018755;28;20754;-87
2023/06/24 09:46:49;;;;;;;0.30;0.30;;;29.50;99.90;;;;;;5003837;28;20503;-86
2023/06/24 09:49:15;;;;;;;0.30;0.30;;;29.90;99.90;;;;;;5005189;28;20045;-89
2023/06/24 09:51:50;;;;;;;0.22;0.22;;;30.10;99.90;;;;;;5005733;28;20045;-88
2023/06/24 09:54:16;;;;;;;0.20;0.20;;;30.10;99.90;;;;;;5006233;28;20053;-89
2023/06/24 09:57:03;;;;;;;0.30;0.30;;;30.10;99.90;;;;;;5005889;28;20070;-87
2023/06/24 09:59:30;;;;;;;0.30;0.30;;;29.80;99.90;;;;;;5009458;28;20080;-87
2023/06/24 10:01:57;;;;;;;0.30;0.30;;;30.00;99.90;;;;;;5002955;28;20133;-87
2023/06/24 10:04:24;;;;;;;0.20;0.20;;;29.40;99.60;;;;;;5003606;28;20160;-84
2023/06/24 10:06:50;;;;;;;0.30;0.30;;;30.00;99.80;;;;;;5004556;28;20518;-89
2023/06/24 10:09:17;;;;;;;0.30;0.30;;;30.10;99.10;;;;;;5005894;28;20041;-86
2023/06/24 10:11:47;;;;;;;0.30;0.30;;;30.10;99.90;;;;;;5007546;28;20049;-86
2023/06/24 10:14:18;;;;;;;0.30;0.30;;;30.20;99.90;;;;;;5001421;28;20095;-88
2023/06/24 10:16:44;;;;;;;0.28;0.28;;;30.30;99.90;;;;;;4990560;28;20122;-87
2023/06/24 10:19:10;;;;;;;0.60;0.60;;;30.40;99.90;;;;;;5006305;28;20060;-85
2023/06/24 10:21:48;;;;;;;0.20;0.20;;;30.00;99.30;;;;;;5006735;28;20628;-86
2023/06/24 10:24:28;;;;;;;0.30;0.30;;;30.40;99.90;;;;;;5004291;28;20042;-86
2023/06/24 10:26:54;;;;;;;0.40;0.40;;;30.50;99.90;;;;;;5003463;28;20049;-86
2023/06/24 10:29:34;;;;;;;0.20;0.20;;;30.70;99.90;;;;;;5005258;28;20601;-89
2023/06/24 10:32:09;;;;;;;0.30;0.30;;;30.50;99.90;;;;;;5007824;28;20045;-90
2023/06/24 10:34:40;;;;;;;0.25;0.25;;;30.60;99.20;;;;;;4992981;28;20507;-87
2023/06/24 10:37:18;;;;;;;0.30;0.30;;;30.80;99.90;;;;;;5006346;28;20053;-87
2023/06/24 10:39:57;;;;;;;0.30;0.30;;;30.40;99.90;;;;;;5007337;28;20049;-87
2023/06/24 10:42:29;;;;;;;0.20;0.20;;;30.10;99.50;;;;;;5005605;28;20046;-86
2023/06/24 10:44:59;;;;;;;0.30;0.30;;;29.70;99.80;;;;;;5004638;28;20672;-89
2023/06/24 10:47:26;;;;;;;0.30;0.30;;;30.40;99.90;;;;;;5000374;28;20076;-90
2023/06/24 10:49:52;;;;;;;0.40;0.40;;;30.50;99.90;;;;;;4989157;28;20126;-87
2023/06/24 10:52:22;;;;;;;0.40;0.40;;;30.70;98.70;;;;;;5002632;28;20475;-86
2023/06/24 10:54:49;;;;;;;0.20;0.20;;;31.00;99.40;;;;;;5000580;28;20052;-85
2023/06/24 10:57:20;;;;;;;0.30;0.30;;;31.20;99.90;;;;;;5005980;28;20049;-85
2023/06/24 10:59:49;;;;;;;0.28;0.28;;;31.20;98.70;;;;;;5005357;28;20196;-85
2023/06/24 11:02:16;;;;;;;0.20;0.20;;;31.40;98.10;;;;;;5005173;28;20048;-85
2023/06/24 11:04:50;;;;;;;0.20;0.20;;;31.10;97.90;;;;;;5005092;28;20107;-85
2023/06/24 11:07:21;;;;;;;0.20;0.20;;;31.20;98.00;;;;;;5004787;28;20526;-86
2023/06/24 11:10:11;;;;;;;0.22;0.22;;;31.50;96.80;;;;;;5006763;28;20053;-86
2023/06/24 11:12:38;;;;;;;0.20;0.20;;;31.60;96.60;;;;;;4997289;28;20079;-86
2023/06/24 11:15:09;;;;;;;0.30;0.30;;;31.00;95.20;;;;;;5003443;28;20053;-86
2023/06/24 11:17:35;;;;;;;0.20;0.20;;;30.00;96.50;;;;;;5005013;28;20046;-87
2023/06/24 11:20:06;;;;;;;0.30;0.30;;;30.00;97.20;;;;;;4999165;28;20056;-86
2023/06/24 11:22:31;;;;;;;0.30;0.30;;;30.40;95.80;;;;;;5004977;28;20360;-86
2023/06/24 11:24:57;;;;;;;0.30;0.30;;;30.90;96.00;;;;;;5004070;28;20120;-85
2023/06/24 11:27:29;;;;;;;0.30;0.30;;;31.30;96.20;;;;;;5003807;28;20076;-84
2023/06/24 11:29:59;;;;;;;0.22;0.22;;;31.50;96.40;;;;;;5005740;28;20045;-85
2023/06/24 11:32:34;;;;;;;0.30;0.30;;;31.70;95.80;;;;;;5003930;28;20103;-86
2023/06/24 11:35:00;;;;;;;0.20;0.20;;;31.50;95.90;;;;;;4993261;28;21252;-87
2023/06/24 11:37:32;;;;;;;0.30;0.30;;;31.40;95.20;;;;;;5004643;28;20666;-86
2023/06/24 11:40:06;;;;;;;0.20;0.20;;;31.90;95.10;;;;;;4999379;28;20099;-84
2023/06/24 11:42:40;;;;;;;0.20;0.20;;;31.80;93.70;;;;;;5004391;28;20057;-89
2023/06/24 11:45:09;;;;;;;0.20;0.20;;;31.80;95.20;;;;;;4998452;28;20057;-88
2023/06/24 11:47:36;;;;;;;0.30;0.30;;;31.10;95.10;;;;;;5002085;28;20072;-88
2023/06/24 11:50:04;;;;;;;0.28;0.28;;;29.90;95.00;;;;;;5001961;28;20037;-88
2023/06/24 11:52:40;;;;;;;0.20;0.20;;;29.40;95.80;;;;;;4994768;28;20042;-89
2023/06/24 11:55:23;;;;;;;0.32;0.32;;;29.00;94.20;;;;;;4996233;28;20121;-89
2023/06/24 11:58:01;;;;;;;0.30;0.30;;;29.50;95.40;;;;;;5000776;28;20108;-88
2023/06/24 12:00:32;;;;;;;0.20;0.20;;;28.90;95.10;;;;;;4994604;28;20139;-90
2023/06/24 12:03:09;;;;;;;0.20;0.20;;;29.80;94.30;;;;;;4984658;28;20057;-86
2023/06/24 12:05:36;;;;;;;0.30;0.30;;;30.50;96.10;;;;;;4994555;28;20057;-88
2023/06/24 12:08:06;;;;;;;0.30;0.30;;;30.90;96.70;;;;;;5003701;28;20098;-88
2023/06/24 12:10:33;;;;;;;0.20;0.20;;;30.70;94.90;;;;;;5003541;28;20041;-88
2023/06/24 12:13:00;;;;;;;0.30;0.30;;;30.80;96.50;;;;;;4996449;28;20042;-86
2023/06/24 12:15:26;;;;;;;0.22;0.22;;;31.00;95.50;;;;;;4988604;28;20065;-87
2023/06/24 12:17:52;;;;;;;0.20;0.20;;;31.20;95.40;;;;;;5005381;28;20220;-88
2023/06/24 12:20:18;;;;;;;0.28;0.28;;;30.20;94.80;;;;;;4997089;28;20668;-87
2023/06/24 12:22:48;;;;;;;0.20;0.20;;;29.60;94.90;;;;;;5000830;28;20053;-89
2023/06/24 12:25:14;;;;;;;0.30;0.30;;;29.10;95.20;;;;;;5016442;28;20079;-89
2023/06/24 12:27:42;;;;;;;0.30;0.30;;;28.30;95.30;;;;;;5004185;28;20041;-87
2023/06/24 12:30:09;;;;;;;0.25;0.25;;;29.50;96.80;;;;;;4998559;28;20494;-84
2023/06/24 12:32:35;;;;;;;0.20;0.20;;;30.40;95.30;;;;;;4990315;28;20049;-85
2023/06/24 12:35:03;;;;;;;0.28;0.28;;;31.10;95.10;;;;;;4989052;28;20046;-87
2023/06/24 12:37:33;;;;;;;0.30;0.30;;;31.10;90.40;;;;;;5001004;28;20522;-86
2023/06/24 12:40:00;;;;;;;0.30;0.30;;;31.20;93.50;;;;;;5000263;28;20038;-89
2023/06/24 12:42:26;;;;;;;0.20;0.20;;;31.00;91.00;;;;;;4992824;28;20042;-88
2023/06/24 12:44:53;;;;;;;0.30;0.30;;;31.60;94.80;;;;;;5004016;28;20061;-88
2023/06/24 12:47:19;;;;;;;0.30;0.30;;;32.00;93.30;;;;;;4986376;28;20703;-89
2023/06/24 12:49:44;;;;;;;0.20;0.20;;;31.00;92.80;;;;;;5003539;28;20091;-87
2023/06/24 12:52:11;;;;;;;0.30;0.30;;;31.60;94.90;;;;;;4989413;28;20072;-90